Alna, Maine
Current Conditions -  °F | °C
As of 3:53 PM on Saturday 25 Oct 2014 (Local Time) from KIWI Reporting Station
Clear Clear  
Wind Chill: 60°   Ceiling: Unl
Heat Index: 60°   Visibility: 10mi
Dew Point: 42°   Wind: 5mph
Humidity: 51%   Direction: 190°S
Pressure: 29.57"   Gusts: NA
Location:  44.11°N, 69.6°W
Report Text: KIWI 251953Z AUTO 19004KT 10SM CLR 16/06 A2957 RMK AO2 SLP013 T01560056
Loading
Personal Weather Stations






























Interactive Weather Map
Tropical Storm Tracking
New forecast layout! Learn more

10-Day Weather Forecast

Advertisements
Track Severe Weather on mobile